Lulu Pass Weather Station

This weather station provides temperature, relative humidity (RH), wind speed, gust or max wind speed, and wind direction at 10014ft near Lulu Pass at the head of Fisher Creek. This data can be used with temperature and precipitation data from the Fisher Creek SNOTEL site.

This weather station was purchased by the Friends of the Avalanche Center.

If the data has not been updated recently you can view it directly on datagarrison.com

Elevation
10014ft
Jump to table bottom
Date Time Temperature
deg F
RH, % Wind Speed Wind Gust Wind Direction
09/21/20 21:00 47.3 31 4 15 SW - 232
09/21/20 20:00 47.1 28 10 20 SW - 213
09/21/20 19:00 50.8 25 7 19 SW - 232
09/21/20 18:00 54.2 25 8 20 W - 248
09/21/20 17:00 55.3 28 9 21 SW - 234
09/21/20 16:00 56.3 32 8 18 SW - 233
09/21/20 15:00 52.7 37 8 18 SW - 243
09/21/20 14:00 51.8 41 6 22 SW - 237
09/21/20 13:00 51.4 41 9 20 SW - 236
09/21/20 12:00 44.9 58 7 16 SW - 237
09/21/20 11:00 42.0 64 8 21 SW - 234
09/21/20 10:00 39.0 77 6 19 SW - 247
09/21/20 09:00 36.7 81 6 18 SW - 232
09/21/20 08:00 35.1 83 4 14 W - 267
09/21/20 07:00 34.4 81 4 14 W - 261
09/21/20 06:00 33.9 77 4 16 W - 274
09/21/20 05:00 34.3 76 4 11 NW - 299
09/21/20 04:00 33.6 79 6 17 W - 253
09/21/20 03:00 33.6 79 5 13 W - 288
09/21/20 02:00 35.1 75 5 14 W - 256
09/21/20 01:00 34.5 79 6 14 W - 291
09/21/20 00:00 33.7 82 6 13 W - 260
09/20/20 23:00 32.7 85 5 12 SW - 236
09/20/20 22:00 33.6 80 7 15 SW - 222
09/20/20 21:00 35.2 72 6 14 SW - 215
09/20/20 20:00 35.9 72 9 23 SW - 233
09/20/20 19:00 37.0 70 11 24 SW - 233
09/20/20 18:00 37.6 69 11 22 SW - 240
09/20/20 17:00 37.4 71 10 25 SW - 237
09/20/20 16:00 36.8 74 11 23 SW - 234
09/20/20 15:00 36.3 77 12 27 SW - 233
09/20/20 14:00 35.5 83 11 24 SW - 232
09/20/20 13:00 33.7 88 11 27 SW - 236
09/20/20 12:00 31.4 99 9 23 SW - 239
09/20/20 11:00 30.7 100 7 16 W - 267
09/20/20 10:00 29.8 100 7 16 W - 264
09/20/20 09:00 29.2 100 7 15 W - 268
09/20/20 08:00 29.1 100 8 19 W - 282
09/20/20 07:00 29.4 100 9 17 W - 256
09/20/20 06:00 29.6 100 9 27 W - 263
09/20/20 05:00 30.0 100 9 17 W - 288
09/20/20 04:00 30.1 100 9 21 W - 261
09/20/20 03:00 30.5 100 7 22 SW - 244
09/20/20 02:00 31.0 100 9 21 SW - 240
09/20/20 01:00 30.9 100 7 16 W - 263
09/20/20 00:00 31.1 100 8 24 W - 250
09/19/20 23:00 31.2 99 8 17 SW - 240
09/19/20 22:00 31.4 99 8 24 SW - 237
09/19/20 21:00 32.5 97 8 26 SW - 241
09/19/20 20:00 36.2 89 7 23 SW - 240